Time;durP1;ratioP1;P1;durP2;ratioP2;P2;SDS_P1;SDS_P2;PMS_P1;PMS_P2;Temp;Humidity;BMP_temperature;BMP_pressure;BME280_temperature;BME280_humidity;BME280_pressure;Samples;Min_cycle;Max_cycle;Signal;HPM_P1;HPM_P2
2023/05/15 00:00:01;;;;;;;7.20;4.95;;;14.10;99.90;;;;;;5052436;28;20063;-73
2023/05/15 00:02:27;;;;;;;6.57;4.43;;;14.10;99.90;;;;;;5052615;28;20037;-73
2023/05/15 00:04:53;;;;;;;7.32;4.63;;;14.10;99.90;;;;;;5052501;28;20037;-73
2023/05/15 00:07:18;;;;;;;7.72;3.95;;;14.10;99.90;;;;;;5052274;28;20029;-73
2023/05/15 00:09:44;;;;;;;4.60;4.20;;;14.10;99.90;;;;;;5052374;28;20037;-72
2023/05/15 00:12:10;;;;;;;4.30;3.88;;;14.10;99.90;;;;;;5052924;28;20120;-72
2023/05/15 00:14:35;;;;;;;3.22;2.70;;;14.10;99.90;;;;;;5056694;28;20047;-72
2023/05/15 00:17:01;;;;;;;3.28;2.20;;;14.10;99.90;;;;;;5056739;28;20399;-73
2023/05/15 00:19:27;;;;;;;3.20;1.90;;;14.10;99.90;;;;;;5055998;28;20462;-73
2023/05/15 00:21:54;;;;;;;7.78;1.50;;;14.10;99.90;;;;;;5056291;28;20113;-73
2023/05/15 00:24:21;;;;;;;1.58;1.30;;;14.10;99.90;;;;;;5056221;28;20475;-72
2023/05/15 00:26:46;;;;;;;5.38;1.00;;;14.10;99.90;;;;;;5056303;28;20041;-72
2023/05/15 00:29:12;;;;;;;1.75;1.00;;;14.10;99.90;;;;;;5056359;28;20067;-72
2023/05/15 00:31:38;;;;;;;4.90;1.10;;;14.10;99.90;;;;;;5056167;28;20167;-73
2023/05/15 00:34:04;;;;;;;1.10;0.80;;;14.00;99.90;;;;;;5056285;28;20059;-73
2023/05/15 00:36:30;;;;;;;2.15;0.98;;;14.00;99.90;;;;;;5056110;28;20041;-72
2023/05/15 00:38:56;;;;;;;1.17;0.80;;;14.00;99.90;;;;;;5056060;28;20487;-72
2023/05/15 00:41:23;;;;;;;1.60;0.90;;;14.00;99.90;;;;;;5055908;28;20395;-72
2023/05/15 00:43:51;;;;;;;3.25;0.70;;;14.00;99.90;;;;;;5055918;28;20119;-73
2023/05/15 00:46:18;;;;;;;2.67;0.70;;;13.90;99.90;;;;;;5055787;28;20029;-72
2023/05/15 00:48:44;;;;;;;1.25;0.80;;;13.90;99.90;;;;;;5055947;28;20051;-73
2023/05/15 00:51:11;;;;;;;0.98;0.70;;;13.90;99.90;;;;;;5055809;28;20476;-73
2023/05/15 00:53:37;;;;;;;1.77;0.50;;;13.80;99.90;;;;;;5056145;28;20041;-73
2023/05/15 00:56:06;;;;;;;3.58;0.73;;;13.80;99.90;;;;;;5038866;28;20479;-73
2023/05/15 00:58:33;;;;;;;3.47;0.63;;;13.80;99.90;;;;;;5052553;28;20176;-72
2023/05/15 01:00:59;;;;;;;2.33;0.70;;;13.80;99.90;;;;;;5052968;28;20047;-73
2023/05/15 01:03:25;;;;;;;2.28;0.80;;;13.80;99.90;;;;;;5052844;28;20119;-73
2023/05/15 01:05:50;;;;;;;2.78;0.75;;;13.80;99.90;;;;;;5037296;28;20060;-73
2023/05/15 01:08:32;;;;;;;2.78;0.95;;;13.80;99.90;;;;;;5055525;28;20196;-73
2023/05/15 01:10:59;;;;;;;4.30;0.70;;;13.80;99.90;;;;;;5055191;28;20029;-73
2023/05/15 01:13:24;;;;;;;1.35;0.80;;;13.80;99.90;;;;;;5055033;28;20036;-73
2023/05/15 01:15:50;;;;;;;1.58;0.85;;;13.70;99.90;;;;;;5055503;28;20100;-73
2023/05/15 01:18:16;;;;;;;1.83;0.70;;;13.70;99.90;;;;;;5055112;28;20037;-73
2023/05/15 01:20:58;;;;;;;0.70;0.50;;;13.70;99.90;;;;;;5054994;28;20025;-73
2023/05/15 01:23:58;;;;;;;2.00;0.90;;;13.70;99.90;;;;;;5054614;28;20490;-73
2023/05/15 01:26:48;;;;;;;2.08;0.90;;;13.70;99.90;;;;;;5017318;28;20557;-72
2023/05/15 01:29:34;;;;;;;3.33;1.15;;;13.70;99.90;;;;;;5054653;28;20079;-72
2023/05/15 01:32:15;;;;;;;1.77;1.00;;;13.70;99.90;;;;;;5054675;28;20061;-72
2023/05/15 01:34:52;;;;;;;1.45;0.90;;;13.70;99.90;;;;;;5054930;28;20041;-72
2023/05/15 01:37:23;;;;;;;2.03;1.10;;;13.80;99.90;;;;;;5054478;28;20102;-72
2023/05/15 01:39:53;;;;;;;1.40;0.90;;;13.80;99.90;;;;;;5054894;28;20501;-72
2023/05/15 01:42:23;;;;;;;2.25;1.23;;;13.80;99.90;;;;;;5054761;28;20033;-72
2023/05/15 01:44:53;;;;;;;3.65;1.10;;;13.80;99.90;;;;;;5055109;28;20037;-72
2023/05/15 01:47:23;;;;;;;2.42;1.17;;;13.80;99.90;;;;;;5054914;28;20162;-73
2023/05/15 01:49:52;;;;;;;3.83;1.70;;;13.80;99.90;;;;;;5054943;28;20036;-72
2023/05/15 01:52:42;;;;;;;1.92;1.67;;;13.80;99.90;;;;;;5054515;28;20057;-73
2023/05/15 01:55:09;;;;;;;2.03;1.83;;;13.80;99.90;;;;;;5035946;28;20033;-72
2023/05/15 01:57:37;;;;;;;5.63;2.80;;;13.90;99.90;;;;;;5054435;28;20033;-73
2023/05/15 02:00:03;;;;;;;2.63;2.00;;;13.90;99.90;;;;;;5054673;28;20399;-72
2023/05/15 02:02:30;;;;;;;1.77;1.52;;;13.90;99.90;;;;;;5054399;28;20029;-72
2023/05/15 02:04:57;;;;;;;2.95;1.30;;;13.80;99.90;;;;;;5054692;28;20040;-72
2023/05/15 02:07:24;;;;;;;1.98;1.52;;;13.80;99.90;;;;;;5054450;28;20029;-72
2023/05/15 02:09:53;;;;;;;3.78;1.60;;;13.80;99.90;;;;;;5054429;28;20041;-72
2023/05/15 02:12:20;;;;;;;2.75;1.40;;;13.80;99.90;;;;;;5054328;28;20036;-72
2023/05/15 02:14:49;;;;;;;3.67;1.30;;;13.80;99.90;;;;;;5054410;28;20495;-72
2023/05/15 02:17:15;;;;;;;2.65;1.38;;;13.80;99.90;;;;;;5054279;28;20158;-72
2023/05/15 02:19:41;;;;;;;3.90;1.60;;;13.80;99.90;;;;;;5054062;28;20094;-72
2023/05/15 02:22:06;;;;;;;3.17;1.60;;;13.80;99.90;;;;;;5036532;28;20037;-72
2023/05/15 02:24:32;;;;;;;5.03;1.77;;;13.80;99.90;;;;;;5054090;28;20029;-72
2023/05/15 02:27:26;;;;;;;2.53;1.70;;;13.70;99.90;;;;;;5053670;28;20171;-72
2023/05/15 02:30:24;;;;;;;2.40;2.05;;;13.70;99.90;;;;;;5053805;28;20057;-73
2023/05/15 02:33:12;;;;;;;4.28;2.00;;;13.70;99.90;;;;;;5038312;28;20040;-73
2023/05/15 02:35:37;;;;;;;2.67;1.92;;;13.80;99.90;;;;;;5053584;28;20040;-72
2023/05/15 02:38:10;;;;;;;2.13;1.88;;;13.80;99.90;;;;;;5053786;28;20451;-72
2023/05/15 02:40:36;;;;;;;;;;;13.80;99.90;;;;;;5054444;28;20064;-72
2023/05/15 02:43:03;;;;;;;4.03;1.75;;;13.80;99.90;;;;;;5053729;28;19944;-72
2023/05/15 02:45:31;;;;;;;2.40;1.88;;;13.80;99.90;;;;;;5035704;28;20037;-72
2023/05/15 02:47:57;;;;;;;2.45;1.55;;;13.90;99.90;;;;;;5053599;28;20096;-72
2023/05/15 02:50:24;;;;;;;1.85;1.45;;;13.90;99.90;;;;;;5053641;28;20040;-72
2023/05/15 02:52:59;;;;;;;2.40;1.50;;;13.80;99.90;;;;;;5035980;28;20506;-72
2023/05/15 02:55:25;;;;;;;2.15;1.38;;;13.90;99.90;;;;;;5053393;28;20033;-72
2023/05/15 02:57:51;;;;;;;2.10;1.20;;;13.90;99.90;;;;;;5053482;28;20380;-72
2023/05/15 03:00:17;;;;;;;1.42;1.17;;;13.80;99.90;;;;;;5053495;28;20047;-72
2023/05/15 03:02:43;;;;;;;2.83;1.50;;;13.90;99.90;;;;;;5053664;28;20033;-73
2023/05/15 03:05:09;;;;;;;5.30;1.40;;;13.90;99.90;;;;;;5053043;28;20044;-72
2023/05/15 03:07:35;;;;;;;6.40;1.20;;;13.90;99.90;;;;;;5053079;28;20036;-72
2023/05/15 03:10:00;;;;;;;2.35;1.15;;;13.90;99.90;;;;;;5053526;28;20040;-72
2023/05/15 03:12:26;;;;;;;1.80;1.17;;;13.90;99.90;;;;;;5053503;28;20090;-72
2023/05/15 03:14:52;;;;;;;2.17;0.90;;;13.90;99.90;;;;;;5053059;28;20041;-73
2023/05/15 03:17:17;;;;;;;2.10;1.33;;;13.80;99.90;;;;;;5052943;28;20040;-72
2023/05/15 03:19:43;;;;;;;2.40;0.93;;;13.90;99.90;;;;;;5052886;28;20045;-73
2023/05/15 03:22:09;;;;;;;3.47;1.30;;;13.90;99.90;;;;;;5052926;28;20029;-73
2023/05/15 03:24:35;;;;;;;1.80;0.98;;;13.90;99.90;;;;;;5053172;28;20037;-72
2023/05/15 03:27:00;;;;;;;1.35;0.98;;;13.80;99.90;;;;;;5052966;28;20087;-72
2023/05/15 03:29:26;;;;;;;1.65;1.10;;;13.90;99.90;;;;;;5053020;28;20111;-72
2023/05/15 03:31:52;;;;;;;1.45;1.13;;;13.80;99.90;;;;;;5052948;28;20553;-72
2023/05/15 03:34:17;;;;;;;3.08;1.20;;;13.80;99.90;;;;;;5052866;28;20100;-73
2023/05/15 03:36:43;;;;;;;2.55;1.20;;;13.80;99.90;;;;;;5052976;28;20063;-73
2023/05/15 03:39:09;;;;;;;4.50;1.00;;;13.80;99.90;;;;;;5053058;28;20051;-73
2023/05/15 03:41:35;;;;;;;1.63;1.20;;;13.80;99.90;;;;;;5052773;28;20033;-73
2023/05/15 03:44:00;;;;;;;3.17;0.85;;;13.80;99.90;;;;;;5052672;28;20029;-73
2023/05/15 03:46:26;;;;;;;3.58;1.40;;;13.80;99.90;;;;;;5052366;28;20029;-72
2023/05/15 03:48:53;;;;;;;2.15;1.35;;;13.80;99.90;;;;;;5052137;28;20036;-73
2023/05/15 03:51:19;;;;;;;1.83;0.90;;;13.80;99.90;;;;;;5052769;28;20099;-72
2023/05/15 03:53:45;;;;;;;1.17;0.80;;;13.80;99.90;;;;;;5052561;28;20483;-73
2023/05/15 03:56:10;;;;;;;4.80;1.17;;;13.80;99.90;;;;;;5034799;28;20082;-72
2023/05/15 03:58:36;;;;;;;1.48;1.10;;;13.80;99.90;;;;;;5052339;28;20041;-72
2023/05/15 04:01:02;;;;;;;2.60;1.33;;;13.70;99.90;;;;;;5052628;28;20418;-72
2023/05/15 04:03:27;;;;;;;2.63;1.20;;;13.80;99.90;;;;;;5052664;28;20037;-72
2023/05/15 04:05:53;;;;;;;5.30;1.20;;;13.80;99.90;;;;;;5052877;28;20029;-72
2023/05/15 04:08:19;;;;;;;2.88;1.40;;;13.80;99.90;;;;;;5052835;28;20058;-72
2023/05/15 04:10:45;;;;;;;2.03;1.20;;;13.70;99.90;;;;;;5052681;28;20111;-73
2023/05/15 04:13:10;;;;;;;3.53;1.40;;;13.70;99.90;;;;;;5052735;28;20040;-73
2023/05/15 04:15:36;;;;;;;2.30;1.58;;;13.80;99.90;;;;;;5052513;28;20044;-72
2023/05/15 04:18:02;;;;;;;4.18;1.48;;;13.80;99.90;;;;;;5052204;28;20447;-73
2023/05/15 04:20:28;;;;;;;2.17;1.70;;;13.80;99.90;;;;;;5052445;28;20453;-72
2023/05/15 04:22:53;;;;;;;4.32;3.90;;;13.80;99.90;;;;;;5052439;28;20406;-73
2023/05/15 04:25:19;;;;;;;4.03;3.63;;;13.80;99.90;;;;;;5052533;28;20103;-73
2023/05/15 04:27:45;;;;;;;3.20;2.90;;;13.80;99.90;;;;;;5051997;28;20041;-72
2023/05/15 04:30:12;;;;;;;4.32;2.10;;;13.80;99.90;;;;;;5052434;28;20487;-73
2023/05/15 04:32:38;;;;;;;2.13;1.60;;;13.80;99.90;;;;;;5052247;28;20540;-72
2023/05/15 04:35:08;;;;;;;3.65;1.70;;;13.80;99.90;;;;;;5052535;28;20392;-72
2023/05/15 04:37:35;;;;;;;5.60;3.42;;;13.80;99.90;;;;;;5052189;28;20075;-72
2023/05/15 04:40:01;;;;;;;6.43;3.50;;;13.80;99.90;;;;;;5052267;28;20068;-72
2023/05/15 04:42:27;;;;;;;5.32;3.92;;;13.80;99.90;;;;;;5052129;28;20150;-73
2023/05/15 04:44:53;;;;;;;5.05;3.90;;;13.80;99.90;;;;;;5052186;28;20045;-73
2023/05/15 04:47:19;;;;;;;4.63;2.67;;;13.80;99.90;;;;;;5051832;28;20029;-73
2023/05/15 04:49:46;;;;;;;2.85;1.70;;;13.80;99.90;;;;;;5052297;28;20060;-72
2023/05/15 04:52:12;;;;;;;5.45;2.15;;;13.80;99.90;;;;;;5034323;28;20029;-73
2023/05/15 04:54:38;;;;;;;3.05;1.15;;;13.80;99.90;;;;;;5052175;28;20660;-72
2023/05/15 04:57:05;;;;;;;3.65;1.23;;;13.80;99.90;;;;;;5051986;28;20062;-72
2023/05/15 04:59:31;;;;;;;2.17;1.00;;;13.80;99.90;;;;;;5054564;28;20048;-73
2023/05/15 05:01:56;;;;;;;3.45;1.77;;;13.80;99.90;;;;;;5055592;28;20033;-72
2023/05/15 05:04:22;;;;;;;5.75;1.67;;;13.80;99.90;;;;;;5055773;28;20025;-73
2023/05/15 05:06:48;;;;;;;3.83;1.70;;;13.80;99.90;;;;;;5055717;28;20025;-72
2023/05/15 05:09:14;;;;;;;3.47;1.00;;;13.80;99.90;;;;;;5055538;28;20045;-72
2023/05/15 05:11:42;;;;;;;5.07;1.42;;;13.80;99.90;;;;;;5055166;28;20453;-72
2023/05/15 05:14:12;;;;;;;3.35;1.27;;;13.80;99.90;;;;;;5055317;28;20516;-73
2023/05/15 05:16:39;;;;;;;2.50;1.30;;;13.80;99.90;;;;;;5055427;28;20695;-72
2023/05/15 05:19:05;;;;;;;3.15;1.35;;;13.80;99.90;;;;;;5055310;28;20041;-72
2023/05/15 05:21:31;;;;;;;4.10;1.20;;;13.80;99.90;;;;;;5055423;28;20033;-72
2023/05/15 05:23:57;;;;;;;3.50;1.00;;;13.80;99.90;;;;;;5055295;28;20033;-72
2023/05/15 05:26:23;;;;;;;2.83;0.90;;;13.80;99.90;;;;;;5055081;28;20033;-72
2023/05/15 05:28:49;;;;;;;2.38;1.30;;;13.80;99.90;;;;;;5055214;28;20502;-73
2023/05/15 05:31:15;;;;;;;4.45;1.33;;;13.90;99.90;;;;;;5037186;28;20033;-73
2023/05/15 05:33:41;;;;;;;5.28;1.20;;;13.90;99.90;;;;;;5054982;28;20029;-73
2023/05/15 05:36:07;;;;;;;6.40;1.38;;;13.90;99.90;;;;;;5054588;28;20086;-73
2023/05/15 05:38:33;;;;;;;3.53;1.52;;;14.00;99.90;;;;;;5054919;28;20041;-73
2023/05/15 05:41:00;;;;;;;2.28;1.30;;;14.00;99.90;;;;;;5054909;28;20072;-73
2023/05/15 05:43:26;;;;;;;2.25;1.60;;;14.00;99.90;;;;;;5054642;28;20506;-72
2023/05/15 05:45:52;;;;;;;4.53;1.50;;;14.00;99.90;;;;;;5054399;28;20044;-72
2023/05/15 05:48:18;;;;;;;2.55;1.30;;;14.00;99.90;;;;;;5054430;28;20037;-72
2023/05/15 05:50:43;;;;;;;3.22;1.58;;;14.00;99.90;;;;;;5054165;28;20037;-73
2023/05/15 05:53:09;;;;;;;4.32;1.27;;;14.00;99.90;;;;;;5054320;28;20060;-73
2023/05/15 05:55:35;;;;;;;3.33;1.33;;;14.00;99.90;;;;;;5054467;28;20033;-72
2023/05/15 05:58:01;;;;;;;4.05;1.73;;;14.10;99.90;;;;;;5054389;28;20036;-73
2023/05/15 06:00:27;;;;;;;1.58;1.30;;;14.10;99.90;;;;;;5054333;28;20040;-73
2023/05/15 06:02:58;;;;;;;1.35;1.20;;;14.10;99.90;;;;;;5054376;28;20039;-73
2023/05/15 06:05:27;;;;;;;12.88;1.48;;;14.20;99.90;;;;;;5054297;28;20399;-73
2023/05/15 06:07:53;;;;;;;1.77;1.27;;;14.20;99.90;;;;;;5036394;28;20106;-73
2023/05/15 06:10:20;;;;;;;4.05;1.50;;;14.20;99.90;;;;;;5054059;28;20116;-73
2023/05/15 06:12:46;;;;;;;3.28;1.40;;;14.30;99.90;;;;;;5054301;28;20033;-73
2023/05/15 06:15:12;;;;;;;3.47;1.55;;;14.30;99.90;;;;;;5054333;28;20438;-72
2023/05/15 06:17:38;;;;;;;2.55;1.45;;;14.40;99.90;;;;;;5053921;28;20033;-72
2023/05/15 06:20:08;;;;;;;1.20;1.10;;;14.30;99.90;;;;;;5054371;28;20044;-73
2023/05/15 06:22:35;;;;;;;2.38;1.50;;;14.40;99.90;;;;;;5052208;28;20029;-74
2023/05/15 06:25:02;;;;;;;2.15;1.40;;;14.40;99.90;;;;;;5053636;28;20040;-73
2023/05/15 06:27:28;;;;;;;1.67;0.90;;;14.50;99.90;;;;;;5053089;28;20048;-72
2023/05/15 06:29:54;;;;;;;2.30;0.77;;;14.50;99.90;;;;;;5053364;28;20021;-73
2023/05/15 06:32:20;;;;;;;1.60;0.85;;;14.50;99.90;;;;;;5053108;28;20045;-73
2023/05/15 06:34:45;;;;;;;2.13;0.80;;;14.60;99.90;;;;;;5053279;28;20605;-74
2023/05/15 06:37:11;;;;;;;2.40;0.80;;;14.60;99.90;;;;;;5053179;28;20158;-73
2023/05/15 06:39:37;;;;;;;1.58;0.50;;;14.60;99.90;;;;;;5051661;28;20076;-73
2023/05/15 06:42:03;;;;;;;2.33;0.70;;;14.70;99.90;;;;;;5034747;28;20123;-72
2023/05/15 06:44:30;;;;;;;0.75;0.68;;;14.70;99.90;;;;;;5053117;28;20037;-73
2023/05/15 06:47:05;;;;;;;2.17;0.55;;;14.80;99.90;;;;;;5053282;28;20086;-71
2023/05/15 06:49:31;;;;;;;0.90;0.57;;;14.80;99.90;;;;;;5053126;28;20037;-73
2023/05/15 06:51:56;;;;;;;0.65;0.50;;;14.90;99.90;;;;;;5052644;28;20039;-72
2023/05/15 06:54:22;;;;;;;1.90;0.70;;;14.90;99.90;;;;;;5052653;28;20108;-72
2023/05/15 06:56:48;;;;;;;1.33;0.60;;;15.00;99.90;;;;;;5053028;28;20033;-73
2023/05/15 06:59:14;;;;;;;4.18;0.60;;;15.00;99.90;;;;;;5050135;28;20073;-73
2023/05/15 07:01:40;;;;;;;0.85;0.50;;;15.00;99.90;;;;;;5052809;28;20035;-73
2023/05/15 07:04:06;;;;;;;2.55;0.63;;;15.00;99.90;;;;;;5051389;28;20076;-73
2023/05/15 07:06:31;;;;;;;2.90;0.70;;;15.10;99.90;;;;;;5052912;28;20025;-73
2023/05/15 07:08:58;;;;;;;0.77;0.40;;;15.20;99.90;;;;;;5052347;28;20082;-74
2023/05/15 07:11:24;;;;;;;1.35;0.60;;;15.20;99.90;;;;;;5052893;28;20029;-73
2023/05/15 07:13:54;;;;;;;2.75;0.60;;;15.20;99.90;;;;;;5052617;28;20037;-74
2023/05/15 07:16:20;;;;;;;1.25;0.57;;;15.30;99.90;;;;;;5033793;28;20036;-73
2023/05/15 07:18:45;;;;;;;5.38;0.50;;;15.30;99.90;;;;;;5052825;28;20044;-73
2023/05/15 07:21:11;;;;;;;2.03;0.40;;;15.40;99.90;;;;;;5051393;28;20033;-73
2023/05/15 07:23:37;;;;;;;0.35;0.30;;;15.40;99.90;;;;;;5049687;28;20087;-74
2023/05/15 07:26:06;;;;;;;0.77;0.50;;;15.50;99.90;;;;;;5069043;22;20107;-74
2023/05/15 07:31:57;;;;;;;0.50;0.40;;;15.70;99.90;;;;;;5032188;28;20047;-77
2023/05/15 07:34:51;;;;;;;2.08;0.40;;;15.70;99.90;;;;;;5052640;28;20033;-76
2023/05/15 07:37:30;;;;;;;;;;;;;;;;;;;;;
2023/05/15 07:40:06;;;;;;;4.90;0.40;;;15.70;99.90;;;;;;5032985;28;20520;-76
2023/05/15 07:42:32;;;;;;;1.15;0.55;;;15.70;99.90;;;;;;5052471;28;20033;-77
2023/05/15 07:44:58;;;;;;;2.45;0.32;;;15.60;99.90;;;;;;5052060;28;20536;-77
2023/05/15 07:47:24;;;;;;;0.73;0.40;;;15.60;99.90;;;;;;5052104;28;20072;-76
2023/05/15 07:49:50;;;;;;;2.15;0.30;;;15.70;99.90;;;;;;5031550;28;20445;-75
2023/05/15 07:52:16;;;;;;;0.77;0.40;;;15.70;99.90;;;;;;5048328;28;20045;-76
2023/05/15 07:54:41;;;;;;;1.50;0.38;;;15.80;99.50;;;;;;5051719;28;20028;-75
2023/05/15 07:57:08;;;;;;;1.38;0.30;;;15.80;99.30;;;;;;5052184;28;20041;-75
2023/05/15 07:59:34;;;;;;;4.50;0.30;;;15.90;99.40;;;;;;5052184;28;20077;-75
2023/05/15 08:02:00;;;;;;;0.50;0.28;;;16.00;99.40;;;;;;5051886;28;20037;-76
2023/05/15 08:04:26;;;;;;;1.10;0.45;;;16.00;98.90;;;;;;5050497;28;20041;-75
2023/05/15 08:06:52;;;;;;;2.55;0.30;;;16.10;98.80;;;;;;5051973;28;20037;-75
2023/05/15 08:09:18;;;;;;;1.60;0.30;;;16.20;99.20;;;;;;5051823;28;20048;-76
2023/05/15 08:11:44;;;;;;;0.57;0.35;;;16.20;98.90;;;;;;5052248;28;20062;-76
2023/05/15 08:14:09;;;;;;;0.65;0.40;;;16.30;99.00;;;;;;5052143;28;20021;-76
2023/05/15 08:16:35;;;;;;;0.30;0.30;;;16.40;98.70;;;;;;5051993;28;20029;-84
2023/05/15 08:19:03;;;;;;;2.90;0.30;;;16.40;98.50;;;;;;5052192;28;20092;-79
2023/05/15 08:21:30;;;;;;;0.65;0.40;;;16.50;98.40;;;;;;5050912;28;20083;-80
2023/05/15 08:23:56;;;;;;;0.30;0.20;;;16.50;98.60;;;;;;5049352;28;20522;-80
2023/05/15 08:26:22;;;;;;;1.00;0.25;;;16.60;98.60;;;;;;5052131;28;20040;-81
2023/05/15 08:28:48;;;;;;;8.57;2.55;;;16.60;98.50;;;;;;5034083;28;20179;-79
2023/05/15 08:31:14;;;;;;;0.30;0.25;;;16.70;98.40;;;;;;5052408;28;20056;-79
2023/05/15 08:33:40;;;;;;;1.92;0.30;;;16.70;97.80;;;;;;5053588;28;20032;-80
2023/05/15 08:36:07;;;;;;;0.38;0.30;;;16.80;97.50;;;;;;5056131;28;20029;-78
2023/05/15 08:38:33;;;;;;;0.63;0.40;;;16.90;96.80;;;;;;5055701;28;20091;-78
2023/05/15 08:41:16;;;;;;;1.83;0.30;;;16.90;96.70;;;;;;5055569;28;20037;-79
2023/05/15 08:43:43;;;;;;;0.30;0.30;;;16.90;97.20;;;;;;5035844;28;20434;-79
2023/05/15 08:46:09;;;;;;;0.30;0.30;;;17.00;97.00;;;;;;5035943;28;20112;-79
2023/05/15 08:48:38;;;;;;;2.33;0.40;;;17.00;97.00;;;;;;5036104;28;20034;-79
2023/05/15 08:51:09;;;;;;;1.65;0.57;;;17.10;96.90;;;;;;5035896;28;20045;-79
2023/05/15 09:01:01;;;;;;;0.82;0.22;;;17.30;95.70;;;;;;4936227;29;20043;-79
2023/05/15 09:07:15;;;;;;;4.53;0.50;;;17.40;95.80;;;;;;4860561;29;20045;-79
2023/05/15 09:10:04;;;;;;;2.85;0.50;;;17.50;95.60;;;;;;4861002;29;20049;-81
2023/05/15 09:12:44;;;;;;;0.65;0.43;;;17.50;95.50;;;;;;4844435;29;20448;-81
2023/05/15 09:15:16;;;;;;;3.47;0.40;;;17.50;95.30;;;;;;4842165;29;20060;-80
2023/05/15 09:17:56;;;;;;;1.45;0.40;;;17.40;95.30;;;;;;4896722;29;20044;-79
2023/05/15 09:20:39;;;;;;;1.45;0.50;;;17.40;95.60;;;;;;4898383;29;20061;-80
2023/05/15 09:23:22;;;;;;;2.72;0.80;;;17.40;96.90;;;;;;4916834;28;20406;-80
2023/05/15 09:25:55;;;;;;;0.95;0.43;;;17.50;97.70;;;;;;5017402;28;20376;-81
2023/05/15 09:28:27;;;;;;;3.15;0.65;;;17.70;98.20;;;;;;5034884;28;20426;-80
2023/05/15 09:30:58;;;;;;;2.72;0.60;;;17.80;97.70;;;;;;5035264;28;20426;-80
2023/05/15 09:33:35;;;;;;;0.80;0.60;;;17.90;96.30;;;;;;5035005;28;20112;-80
2023/05/15 09:36:04;;;;;;;0.85;0.50;;;18.00;96.00;;;;;;5034925;28;20390;-80
2023/05/15 09:38:34;;;;;;;0.70;0.50;;;18.00;95.70;;;;;;5034660;28;20042;-80
2023/05/15 09:41:05;;;;;;;1.85;0.80;;;18.10;95.20;;;;;;5034761;28;20387;-79
2023/05/15 09:43:39;;;;;;;3.58;0.70;;;18.20;95.70;;;;;;5034497;28;20037;-80
2023/05/15 09:46:07;;;;;;;1.50;0.60;;;18.20;96.10;;;;;;5034215;28;20037;-80
2023/05/15 09:48:34;;;;;;;4.72;0.60;;;18.30;95.00;;;;;;5034658;28;20360;-80
2023/05/15 09:51:01;;;;;;;2.60;0.40;;;18.40;95.10;;;;;;5034328;28;20041;-80
2023/05/15 09:53:28;;;;;;;1.17;0.50;;;18.40;95.00;;;;;;5033276;28;20487;-79
2023/05/15 09:55:54;;;;;;;1.17;0.30;;;18.50;94.10;;;;;;5032873;28;20045;-78
2023/05/15 09:58:22;;;;;;;2.80;0.50;;;18.60;93.60;;;;;;5034171;28;20058;-79
2023/05/15 10:00:47;;;;;;;3.00;0.43;;;18.70;94.30;;;;;;5034820;28;20527;-79
2023/05/15 10:03:13;;;;;;;1.55;0.50;;;18.80;94.30;;;;;;5034808;28;20145;-78
2023/05/15 10:05:40;;;;;;;0.63;0.40;;;18.90;93.90;;;;;;5016666;28;20514;-78
2023/05/15 10:08:06;;;;;;;0.73;0.40;;;19.10;93.90;;;;;;5034438;28;20029;-79
2023/05/15 10:10:32;;;;;;;0.68;0.50;;;19.10;94.10;;;;;;5034392;28;20376;-78
2023/05/15 10:13:04;;;;;;;1.25;0.60;;;19.20;93.20;;;;;;5034041;28;20030;-79
2023/05/15 10:15:31;;;;;;;1.15;0.50;;;19.30;93.10;;;;;;5034203;28;20487;-79
2023/05/15 10:17:58;;;;;;;4.88;0.70;;;19.30;93.70;;;;;;5033849;28;20048;-78
2023/05/15 10:20:25;;;;;;;2.25;0.52;;;19.40;93.40;;;;;;5034139;28;20087;-79
2023/05/15 10:22:54;;;;;;;0.98;0.50;;;19.50;92.40;;;;;;5034162;28;20033;-79
2023/05/15 10:25:49;;;;;;;0.93;0.52;;;19.60;91.70;;;;;;5034964;28;20377;-79
2023/05/15 10:28:16;;;;;;;1.17;0.55;;;19.70;93.20;;;;;;5034166;28;20057;-79
2023/05/15 10:30:42;;;;;;;1.75;0.50;;;19.80;91.90;;;;;;5034259;28;20030;-79
2023/05/15 10:33:10;;;;;;;1.40;0.50;;;19.90;92.00;;;;;;5034269;28;20037;-80
2023/05/15 10:35:40;;;;;;;3.35;0.60;;;20.00;92.40;;;;;;5034107;28;20030;-79
2023/05/15 10:38:06;;;;;;;2.97;0.50;;;20.00;90.30;;;;;;5034157;28;20083;-79
2023/05/15 10:40:35;;;;;;;1.98;0.70;;;20.00;88.50;;;;;;5034229;28;20036;-79
2023/05/15 10:43:06;;;;;;;2.92;0.50;;;20.00;90.10;;;;;;5033888;28;20033;-80
2023/05/15 10:45:36;;;;;;;1.88;0.70;;;20.10;90.00;;;;;;5033474;28;20360;-79
2023/05/15 10:48:11;;;;;;;2.38;0.90;;;20.10;89.80;;;;;;5031504;28;20034;-79
2023/05/15 10:50:39;;;;;;;0.70;0.50;;;20.00;88.30;;;;;;5033322;28;20457;-80
2023/05/15 10:53:09;;;;;;;0.47;0.38;;;19.90;87.30;;;;;;5033480;28;20029;-77
2023/05/15 10:55:38;;;;;;;1.40;0.45;;;19.80;87.20;;;;;;5033199;28;20091;-80
2023/05/15 10:58:10;;;;;;;2.55;0.75;;;19.70;88.00;;;;;;5030831;28;20056;-80
2023/05/15 11:00:50;;;;;;;1.00;0.47;;;19.70;89.30;;;;;;5031502;28;20470;-80
2023/05/15 11:03:36;;;;;;;0.93;0.40;;;19.70;88.00;;;;;;5032805;28;20401;-80
2023/05/15 11:06:12;;;;;;;1.17;0.40;;;19.70;89.00;;;;;;5033073;28;20064;-80
2023/05/15 11:08:40;;;;;;;2.70;0.60;;;19.80;90.10;;;;;;5032848;28;20116;-81
2023/05/15 11:11:06;;;;;;;0.50;0.40;;;19.90;90.20;;;;;;5033082;28;20390;-81
2023/05/15 11:14:03;;;;;;;2.40;0.40;;;19.90;90.00;;;;;;5033237;28;20437;-80
2023/05/15 11:16:53;;;;;;;3.80;0.50;;;19.90;88.30;;;;;;5032710;28;20088;-80
2023/05/15 11:19:31;;;;;;;1.48;0.60;;;19.90;87.90;;;;;;5032731;28;20077;-80
2023/05/15 11:22:17;;;;;;;1.00;0.40;;;19.90;90.50;;;;;;5031399;28;20381;-79
2023/05/15 11:24:51;;;;;;;1.40;0.40;;;19.90;89.20;;;;;;5032712;28;20104;-80
2023/05/15 11:27:22;;;;;;;0.82;0.30;;;20.00;89.30;;;;;;5032139;28;20415;-80
2023/05/15 11:30:13;;;;;;;0.57;0.30;;;20.00;87.80;;;;;;5032547;28;20041;-81
2023/05/15 11:32:55;;;;;;;1.60;0.50;;;20.10;89.00;;;;;;5032549;28;20041;-82
2023/05/15 11:35:23;;;;;;;1.08;0.40;;;20.20;87.20;;;;;;5032238;28;20298;-81
2023/05/15 11:37:53;;;;;;;1.02;0.30;;;20.30;86.90;;;;;;5032275;28;20502;-80
2023/05/15 11:40:20;;;;;;;0.73;0.35;;;20.30;87.30;;;;;;5032583;28;20132;-80
2023/05/15 11:43:20;;;;;;;1.75;0.50;;;20.40;85.40;;;;;;5031398;28;20575;-80
2023/05/15 11:45:51;;;;;;;0.80;0.50;;;20.50;87.40;;;;;;5039155;28;20486;-80
2023/05/15 11:48:18;;;;;;;4.20;0.50;;;20.50;87.30;;;;;;5034452;28;20052;-80
2023/05/15 11:50:45;;;;;;;0.28;0.25;;;20.50;86.40;;;;;;5052200;28;20459;-80
2023/05/15 11:53:11;;;;;;;1.65;0.45;;;20.60;87.70;;;;;;5052025;28;20398;-79
2023/05/15 11:55:39;;;;;;;0.93;0.57;;;20.70;87.60;;;;;;5052057;28;20029;-79
2023/05/15 11:58:11;;;;;;;2.35;0.35;;;20.70;84.90;;;;;;5052036;28;20055;-80
2023/05/15 12:00:37;;;;;;;1.73;0.50;;;20.70;83.80;;;;;;5052098;28;20033;-80
2023/05/15 12:03:02;;;;;;;0.75;0.50;;;20.60;85.90;;;;;;5052377;28;20169;-81
2023/05/15 12:05:29;;;;;;;1.88;0.50;;;20.50;86.20;;;;;;5034283;28;20037;-80
2023/05/15 12:07:56;;;;;;;2.55;0.40;;;20.50;86.10;;;;;;5052719;28;20041;-79
2023/05/15 12:10:22;;;;;;;1.55;0.30;;;20.60;85.40;;;;;;5057296;28;20037;-77
2023/05/15 12:12:49;;;;;;;2.10;0.60;;;20.70;85.70;;;;;;5056950;28;20387;-79
2023/05/15 12:15:16;;;;;;;1.75;0.40;;;20.90;84.60;;;;;;5056603;28;20040;-78
2023/05/15 12:17:43;;;;;;;1.58;0.40;;;21.00;85.40;;;;;;5056964;28;20147;-78
2023/05/15 12:20:17;;;;;;;2.80;0.40;;;21.10;85.90;;;;;;5056623;28;20469;-86
2023/05/15 12:33:04;;;;;;;1.35;0.50;;;21.20;79.40;;;;;;5110854;27;20379;-78
2023/05/15 12:35:36;;;;;;;1.55;0.50;;;21.00;82.00;;;;;;5110857;28;20383;-78
2023/05/15 12:38:05;;;;;;;0.32;0.30;;;20.90;86.40;;;;;;5110470;28;20024;-78
2023/05/15 12:40:35;;;;;;;1.35;0.60;;;20.60;87.60;;;;;;5110393;28;20028;-77
2023/05/15 12:43:08;;;;;;;1.77;0.50;;;20.50;89.30;;;;;;5110618;28;20088;-77
2023/05/15 12:45:36;;;;;;;1.50;0.43;;;20.30;90.50;;;;;;5110601;28;20046;-78
2023/05/15 12:48:04;;;;;;;2.95;0.47;;;20.20;91.10;;;;;;5110745;28;20490;-77
2023/05/15 12:50:32;;;;;;;1.48;0.57;;;20.10;91.80;;;;;;5108862;28;20426;-78
2023/05/15 12:53:00;;;;;;;2.08;0.40;;;20.00;91.80;;;;;;5108685;28;20383;-80
2023/05/15 12:55:38;;;;;;;0.70;0.43;;;19.90;91.70;;;;;;5108641;28;20387;-79
2023/05/15 12:58:09;;;;;;;0.50;0.50;;;19.90;92.50;;;;;;5107529;28;20034;-80
2023/05/15 13:00:40;;;;;;;0.88;0.40;;;19.80;92.60;;;;;;5107443;28;20031;-79
2023/05/15 13:03:10;;;;;;;0.50;0.50;;;19.80;93.00;;;;;;5109499;28;20443;-77
2023/05/15 13:05:37;;;;;;;0.38;0.38;;;19.80;93.00;;;;;;5109899;28;20379;-79
2023/05/15 13:08:05;;;;;;;0.40;0.32;;;19.80;92.50;;;;;;5107844;28;20417;-78
2023/05/15 13:10:33;;;;;;;0.70;0.47;;;19.80;91.90;;;;;;5105639;28;20054;-80
2023/05/15 13:12:59;;;;;;;0.57;0.47;;;19.80;92.70;;;;;;5107039;28;20476;-78
2023/05/15 13:15:38;;;;;;;0.85;0.40;;;19.80;92.10;;;;;;5109583;28;20019;-78
2023/05/15 13:18:12;;;;;;;0.63;0.30;;;19.80;91.80;;;;;;5110006;28;20035;-78
2023/05/15 13:20:50;;;;;;;2.08;0.45;;;19.90;91.90;;;;;;5109819;28;20468;-77